Time;durP1;ratioP1;P1;durP2;ratioP2;P2;SDS_P1;SDS_P2;PMS_P1;PMS_P2;Temp;Humidity;BMP_temperature;BMP_pressure;BME280_temperature;BME280_humidity;BME280_pressure;Samples;Min_cycle;Max_cycle;Signal;HPM_P1;HPM_P2
2020/12/01 00:00:00;;;;;;;18.00;16.20;;;;;21.90;100181.00;;;;2078915;28;20232;-51
2020/12/01 00:01:01;;;;;;;17.80;15.87;;;;;21.90;100177.00;;;;2078629;28;20511;-47
2020/12/01 00:02:01;;;;;;;16.70;15.00;;;;;21.90;100182.00;;;;2079036;28;20236;-50
2020/12/01 00:03:01;;;;;;;16.97;15.20;;;;;21.90;100176.00;;;;2078615;28;20213;-50
2020/12/01 00:04:01;;;;;;;18.23;16.13;;;;;21.90;100172.00;;;;2078883;28;20691;-51
2020/12/01 00:05:02;;;;;;;15.97;14.30;;;;;21.90;100170.00;;;;2078039;28;20898;-50
2020/12/01 00:06:02;;;;;;;16.77;14.90;;;;;21.90;100164.00;;;;2078728;28;20749;-50
2020/12/01 00:07:03;;;;;;;16.17;13.70;;;;;21.90;100158.00;;;;2078588;28;20300;-48
2020/12/01 00:08:03;;;;;;;15.13;13.60;;;;;21.80;100165.00;;;;2072490;28;20220;-50
2020/12/01 00:09:03;;;;;;;14.70;13.17;;;;;21.80;100169.00;;;;2076119;28;20311;-51
2020/12/01 00:10:04;;;;;;;16.30;14.10;;;;;21.80;100155.00;;;;2079723;28;20216;-51
2020/12/01 00:11:05;;;;;;;15.97;13.37;;;;;21.90;100161.00;;;;2078798;28;20228;-51
2020/12/01 00:12:05;;;;;;;15.60;13.80;;;;;21.80;100175.00;;;;2078717;28;20217;-51
2020/12/01 00:13:06;;;;;;;13.30;11.90;;;;;21.80;100168.00;;;;2078655;28;20471;-46
2020/12/01 00:14:07;;;;;;;14.70;13.15;;;;;21.80;100163.00;;;;2078725;28;20872;-51
2020/12/01 00:15:08;;;;;;;13.80;12.40;;;;;21.80;100166.00;;;;2078158;28;20228;-49
2020/12/01 00:16:12;;;;;;;13.68;12.18;;;;;21.80;100167.00;;;;2078626;28;20225;-49
2020/12/01 00:17:12;;;;;;;13.70;12.30;;;;;21.80;100164.00;;;;2078867;28;20563;-49
2020/12/01 00:18:13;;;;;;;13.93;12.50;;;;;21.80;100169.00;;;;2078413;28;20248;-51
2020/12/01 00:19:13;;;;;;;13.00;11.70;;;;;21.80;100163.00;;;;2078135;28;20237;-49
2020/12/01 00:20:14;;;;;;;14.90;13.20;;;;;21.80;100166.00;;;;2078559;28;20621;-49
2020/12/01 00:21:16;;;;;;;13.45;12.00;;;;;21.80;100167.00;;;;2078749;28;20669;-51
2020/12/01 00:22:18;;;;;;;13.35;11.95;;;;;21.70;100154.00;;;;2078651;28;20216;-52
2020/12/01 00:23:18;;;;;;;12.40;11.20;;;;;21.70;100152.00;;;;2078567;28;20221;-49
2020/12/01 00:24:19;;;;;;;12.70;11.40;;;;;21.70;100150.00;;;;2078831;28;20229;-51
2020/12/01 00:25:19;;;;;;;12.53;11.13;;;;;21.70;100156.00;;;;2078214;28;20225;-50
2020/12/01 00:26:19;;;;;;;12.00;10.80;;;;;21.70;100156.00;;;;2078753;28;20279;-48
2020/12/01 00:27:20;;;;;;;12.80;11.50;;;;;21.70;100147.00;;;;2078516;28;20221;-51
2020/12/01 00:28:20;;;;;;;12.03;10.73;;;;;21.70;100147.00;;;;2078398;28;20229;-50
2020/12/01 00:29:21;;;;;;;13.60;11.33;;;;;21.70;100153.00;;;;2077872;28;20629;-50
2020/12/01 00:30:23;;;;;;;11.60;10.40;;;;;21.70;100145.00;;;;2078128;28;20216;-51
2020/12/01 00:31:23;;;;;;;11.80;10.60;;;;;21.70;100150.00;;;;2078262;28;20217;-51
2020/12/01 00:32:24;;;;;;;11.97;10.80;;;;;21.70;100142.00;;;;2078655;28;20244;-47
2020/12/01 00:33:24;;;;;;;11.43;10.23;;;;;21.70;100142.00;;;;2078665;28;20217;-50
2020/12/01 00:34:24;;;;;;;11.70;10.60;;;;;21.60;100143.00;;;;2078593;28;20217;-51
2020/12/01 00:35:28;;;;;;;11.60;10.40;;;;;21.60;100143.00;;;;2077238;28;21298;-49
2020/12/01 00:36:28;;;;;;;10.98;9.88;;;;;21.60;100135.00;;;;2074734;28;20255;-50
2020/12/01 00:37:29;;;;;;;10.60;9.60;;;;;21.60;100136.00;;;;2086021;28;20250;-48
2020/12/01 00:38:29;;;;;;;10.40;9.30;;;;;21.60;100142.00;;;;2084877;28;20228;-49
2020/12/01 00:39:30;;;;;;;10.10;9.10;;;;;21.60;100141.00;;;;2077412;28;20308;-51
2020/12/01 00:40:30;;;;;;;11.17;9.97;;;;;21.60;100142.00;;;;2078726;28;20229;-48
2020/12/01 00:41:30;;;;;;;10.43;9.43;;;;;21.60;100144.00;;;;2078261;28;20305;-50
2020/12/01 00:42:31;;;;;;;10.70;9.60;;;;;21.60;100156.00;;;;2078729;28;20225;-50
2020/12/01 00:43:31;;;;;;;10.40;9.30;;;;;21.60;100153.00;;;;2078760;28;20634;-54
2020/12/01 00:44:31;;;;;;;9.70;8.70;;;;;21.60;100155.00;;;;2079762;28;20595;-56
2020/12/01 00:45:32;;;;;;;10.03;9.00;;;;;21.50;100156.00;;;;2079490;28;20221;-54
2020/12/01 00:46:32;;;;;;;9.43;8.23;;;;;21.60;100160.00;;;;2079702;28;20241;-49
2020/12/01 00:47:32;;;;;;;9.00;8.10;;;;;21.60;100153.00;;;;2074906;28;20267;-51
2020/12/01 00:48:33;;;;;;;9.00;8.20;;;;;21.60;100164.00;;;;2080077;28;20220;-51
2020/12/01 00:49:33;;;;;;;9.30;8.40;;;;;21.60;100151.00;;;;2079485;28;20229;-50
2020/12/01 00:50:33;;;;;;;8.23;7.47;;;;;21.60;100155.00;;;;2080015;28;20286;-50
2020/12/01 00:51:34;;;;;;;8.67;7.77;;;;;21.50;100150.00;;;;2080116;28;20220;-51
2020/12/01 00:52:34;;;;;;;8.77;7.87;;;;;21.50;100146.00;;;;2080409;28;20219;-47
2020/12/01 00:53:34;;;;;;;8.33;7.53;;;;;21.50;100149.00;;;;2079931;28;20808;-49
2020/12/01 00:54:35;;;;;;;8.93;8.13;;;;;21.50;100147.00;;;;2079736;28;20642;-49
2020/12/01 00:55:35;;;;;;;8.77;7.97;;;;;21.50;100153.00;;;;2080207;28;20583;-51
2020/12/01 00:56:36;;;;;;;7.83;7.03;;;;;21.50;100154.00;;;;2080106;28;20248;-50
2020/12/01 00:57:36;;;;;;;7.90;7.20;;;;;21.50;100138.00;;;;2079930;28;20217;-50
2020/12/01 00:58:36;;;;;;;7.83;7.07;;;;;21.50;100138.00;;;;2080081;28;20284;-50
2020/12/01 00:59:37;;;;;;;8.20;7.40;;;;;21.40;100135.00;;;;2080158;28;20267;-47
2020/12/01 01:00:38;;;;;;;8.40;7.00;;;;;21.40;100144.00;;;;2080099;28;20216;-51
2020/12/01 01:01:38;;;;;;;7.77;7.03;;;;;21.40;100135.00;;;;2078086;28;20828;-50
2020/12/01 01:02:38;;;;;;;7.10;6.50;;;;;21.40;100135.00;;;;2077318;28;20217;-51
2020/12/01 01:03:39;;;;;;;8.53;7.63;;;;;21.40;100134.00;;;;2080345;28;20708;-48
2020/12/01 01:04:40;;;;;;;7.47;6.77;;;;;21.40;100131.00;;;;2078301;28;20574;-49
2020/12/01 01:05:40;;;;;;;7.67;6.87;;;;;21.40;100140.00;;;;2078488;28;20517;-51
2020/12/01 01:06:40;;;;;;;7.60;6.90;;;;;21.40;100133.00;;;;2079235;28;20699;-51
2020/12/01 01:07:41;;;;;;;7.50;6.80;;;;;21.40;100142.00;;;;2070983;28;20995;-49
2020/12/01 01:08:41;;;;;;;6.93;6.20;;;;;21.40;100126.00;;;;2070935;28;20609;-47
2020/12/01 01:09:41;;;;;;;7.00;6.30;;;;;21.40;100131.00;;;;2080193;28;20220;-51
2020/12/01 01:10:42;;;;;;;7.40;6.47;;;;;21.40;100131.00;;;;2080254;28;20555;-51
2020/12/01 01:11:42;;;;;;;7.57;6.77;;;;;21.40;100133.00;;;;2080163;28;20570;-50
2020/12/01 01:12:42;;;;;;;7.03;6.30;;;;;21.40;100130.00;;;;2080201;28;20586;-51
2020/12/01 01:13:43;;;;;;;7.20;6.60;;;;;21.30;100132.00;;;;2080188;28;20643;-51
2020/12/01 01:14:43;;;;;;;7.27;6.57;;;;;21.40;100131.00;;;;2079447;28;20228;-50
2020/12/01 01:15:44;;;;;;;6.40;5.80;;;;;21.40;100124.00;;;;2080141;28;20307;-50
2020/12/01 01:16:44;;;;;;;7.20;6.20;;;;;21.40;100124.00;;;;2080126;28;20229;-50
2020/12/01 01:17:44;;;;;;;6.30;5.80;;;;;21.40;100121.00;;;;2087328;28;20271;-50
2020/12/01 01:18:45;;;;;;;6.27;5.67;;;;;21.40;100120.00;;;;2087514;28;20213;-50
2020/12/01 01:19:45;;;;;;;6.60;6.00;;;;;21.40;100125.00;;;;2080002;28;20239;-51
2020/12/01 01:20:45;;;;;;;6.27;5.67;;;;;21.40;100120.00;;;;2079090;28;20221;-50
2020/12/01 01:21:47;;;;;;;6.40;5.80;;;;;21.40;100120.00;;;;2078376;28;20750;-50
2020/12/01 01:22:47;;;;;;;6.45;5.85;;;;;21.30;100123.00;;;;2079874;28;20539;-51
2020/12/01 01:23:47;;;;;;;6.40;5.80;;;;;21.30;100122.00;;;;2080125;28;20228;-48
2020/12/01 01:24:48;;;;;;;5.90;5.30;;;;;21.30;100116.00;;;;2079488;28;20300;-50
2020/12/01 01:25:48;;;;;;;6.10;5.50;;;;;21.30;100120.00;;;;2079779;28;20225;-48
2020/12/01 01:26:49;;;;;;;6.83;6.13;;;;;21.30;100108.00;;;;2079606;28;20247;-49
2020/12/01 01:27:50;;;;;;;6.05;5.47;;;;;21.30;100113.00;;;;2079975;28;20292;-49
2020/12/01 01:28:50;;;;;;;5.67;5.17;;;;;21.30;100116.00;;;;2080097;28;20225;-50
2020/12/01 01:29:51;;;;;;;6.30;5.67;;;;;21.30;100112.00;;;;2079962;28;20273;-51
2020/12/01 01:30:51;;;;;;;5.83;5.33;;;;;21.30;100113.00;;;;2079954;28;20221;-50
2020/12/01 01:31:54;;;;;;;5.57;5.07;;;;;21.30;100121.00;;;;2079933;28;20209;-50
2020/12/01 01:32:55;;;;;;;5.80;5.20;;;;;21.20;100114.00;;;;2080089;28;20209;-51
2020/12/01 01:33:55;;;;;;;5.93;5.40;;;;;21.20;100119.00;;;;2079900;28;20706;-50
2020/12/01 01:34:55;;;;;;;5.70;5.20;;;;;21.20;100113.00;;;;2079277;28;20720;-50
2020/12/01 01:35:56;;;;;;;5.93;5.37;;;;;21.20;100111.00;;;;2079940;28;20208;-50
2020/12/01 01:36:56;;;;;;;5.93;5.40;;;;;21.20;100114.00;;;;2078841;28;20201;-49
2020/12/01 01:37:56;;;;;;;5.37;4.90;;;;;21.20;100117.00;;;;2079814;28;20205;-50
2020/12/01 01:38:57;;;;;;;6.00;5.40;;;;;21.20;100116.00;;;;2078567;28;20205;-49
2020/12/01 01:39:57;;;;;;;5.70;5.20;;;;;21.20;100120.00;;;;2079681;28;20200;-50
2020/12/01 01:40:58;;;;;;;5.73;5.20;;;;;21.20;100117.00;;;;2079567;28;20712;-51
2020/12/01 01:41:58;;;;;;;5.00;4.50;;;;;21.20;100112.00;;;;2079194;28;20585;-49
2020/12/01 01:42:59;;;;;;;5.30;4.80;;;;;21.20;100114.00;;;;2079400;28;20224;-50
2020/12/01 01:43:59;;;;;;;4.87;4.33;;;;;21.20;100109.00;;;;2079551;28;20225;-48
2020/12/01 01:45:00;;;;;;;4.93;4.53;;;;;21.20;100107.00;;;;2079275;28;20213;-49
2020/12/01 01:46:01;;;;;;;4.50;4.10;;;;;21.10;100114.00;;;;2079702;28;20221;-48
2020/12/01 01:47:20;;;;;;;4.80;4.40;;;;;21.10;100117.00;;;;2079954;28;20213;-50
2020/12/01 01:48:26;;;;;;;5.40;4.90;;;;;21.10;100107.00;;;;2081046;28;20867;-50
2020/12/01 01:49:34;;;;;;;5.40;5.00;;;;;21.10;100109.00;;;;2087748;28;20208;-50
2020/12/01 01:50:34;;;;;;;5.72;5.18;;;;;21.20;100108.00;;;;2075801;28;20311;-49
2020/12/01 01:51:35;;;;;;;5.60;5.10;;;;;21.20;100108.00;;;;2070887;28;20625;-51
2020/12/01 01:52:36;;;;;;;4.90;4.50;;;;;21.10;100107.00;;;;2080710;28;20627;-50
2020/12/01 01:53:38;;;;;;;4.95;4.55;;;;;21.10;100113.00;;;;2071061;28;20608;-50
2020/12/01 01:54:39;;;;;;;4.97;4.15;;;;;21.10;100109.00;;;;2078396;28;20232;-49
2020/12/01 01:55:39;;;;;;;4.50;4.10;;;;;21.10;100109.00;;;;2074347;28;20220;-49
2020/12/01 01:56:40;;;;;;;4.70;4.30;;;;;21.10;100109.00;;;;2069785;28;20840;-53
2020/12/01 01:57:42;;;;;;;4.63;4.23;;;;;21.10;100113.00;;;;2066893;28;20560;-50
2020/12/01 01:58:42;;;;;;;5.30;4.90;;;;;21.10;100112.00;;;;2060250;28;20262;-50
2020/12/01 01:59:42;;;;;;;4.80;4.40;;;;;21.10;100108.00;;;;2066531;28;20770;-51
2020/12/01 02:00:57;;;;;;;4.80;4.40;;;;;21.10;100110.00;;;;2078770;28;20298;-48
2020/12/01 02:01:58;;;;;;;4.15;3.85;;;;;21.10;100108.00;;;;2078990;28;20211;-50
2020/12/01 02:02:59;;;;;;;4.55;4.15;;;;;21.10;100112.00;;;;2072580;28;20219;-47
2020/12/01 02:04:04;;;;;;;4.57;4.13;;;;;21.10;100110.00;;;;2078946;28;20236;-50
2020/12/01 02:05:04;;;;;;;4.72;4.32;;;;;21.00;100116.00;;;;2079129;28;20220;-51
2020/12/01 02:06:06;;;;;;;5.00;4.20;;;;;21.00;100114.00;;;;2079724;28;20229;-47
2020/12/01 02:07:06;;;;;;;4.43;4.03;;;;;21.10;100111.00;;;;2078684;28;20633;-51
2020/12/01 02:08:07;;;;;;;4.40;4.00;;;;;21.00;100110.00;;;;2078945;28;20299;-48
2020/12/01 02:09:10;;;;;;;4.73;4.33;;;;;21.00;100100.00;;;;2079123;28;20207;-49
2020/12/01 02:10:10;;;;;;;4.50;4.10;;;;;21.00;100105.00;;;;2079580;28;20224;-50
2020/12/01 02:11:11;;;;;;;4.80;4.40;;;;;21.10;100100.00;;;;2079061;28;20216;-51
2020/12/01 02:12:12;;;;;;;4.60;4.20;;;;;21.00;100105.00;;;;2070812;28;20345;-48
2020/12/01 02:13:13;;;;;;;4.30;3.90;;;;;21.00;100095.00;;;;2062987;28;20268;-52
2020/12/01 02:14:22;;;;;;;4.40;3.97;;;;;21.00;100102.00;;;;2078926;28;21072;-47
2020/12/01 02:15:23;;;;;;;4.70;4.30;;;;;21.00;100103.00;;;;2076847;28;20209;-51
2020/12/01 02:16:23;;;;;;;4.13;3.73;;;;;21.10;100099.00;;;;2070602;28;20255;-51
2020/12/01 02:17:32;;;;;;;4.67;4.20;;;;;21.00;100102.00;;;;2080643;28;20812;-48
2020/12/01 02:18:35;;;;;;;4.70;4.30;;;;;21.00;100098.00;;;;2079373;28;20836;-51
2020/12/01 02:19:35;;;;;;;5.13;4.60;;;;;21.00;100096.00;;;;2079673;28;20290;-51
2020/12/01 02:20:36;;;;;;;4.33;3.93;;;;;21.00;100088.00;;;;2079720;28;20273;-48
2020/12/01 02:21:38;;;;;;;4.38;4.07;;;;;21.00;100091.00;;;;2079524;28;20213;-50
2020/12/01 02:22:41;;;;;;;4.22;3.92;;;;;21.00;100083.00;;;;2079238;28;20240;-50
2020/12/01 02:23:41;;;;;;;4.35;3.95;;;;;21.00;100090.00;;;;2066837;28;20241;-51
2020/12/01 02:24:41;;;;;;;3.80;3.50;;;;;21.00;100085.00;;;;2057854;28;20215;-51
2020/12/01 02:25:42;;;;;;;3.90;3.60;;;;;21.00;100088.00;;;;2078785;28;20307;-51
2020/12/01 02:26:44;;;;;;;4.20;3.80;;;;;21.00;100086.00;;;;2079594;28;20217;-49
2020/12/01 02:27:49;;;;;;;5.15;4.13;;;;;21.00;100087.00;;;;2083348;28;20218;-51
2020/12/01 02:28:50;;;;;;;4.18;3.88;;;;;21.00;100087.00;;;;2076269;28;20247;-47
2020/12/01 02:29:51;;;;;;;4.20;3.80;;;;;21.00;100081.00;;;;2079382;28;20217;-48
2020/12/01 02:30:52;;;;;;;3.95;3.65;;;;;21.00;100086.00;;;;2079561;28;20823;-49
2020/12/01 02:31:52;;;;;;;4.47;4.07;;;;;21.00;100088.00;;;;2079395;28;20208;-50
2020/12/01 02:32:52;;;;;;;3.50;3.30;;;;;20.90;100089.00;;;;2079595;28;20212;-51
2020/12/01 02:33:53;;;;;;;3.80;3.47;;;;;21.00;100079.00;;;;2079331;28;20270;-50
2020/12/01 02:34:58;;;;;;;4.30;3.90;;;;;21.00;100084.00;;;;2078803;28;20222;-51
2020/12/01 02:35:59;;;;;;;3.65;3.35;;;;;20.90;100078.00;;;;2078769;28;20220;-49
2020/12/01 02:37:00;;;;;;;3.83;3.53;;;;;20.90;100079.00;;;;2078474;28;20271;-50
2020/12/01 02:38:00;;;;;;;3.70;3.40;;;;;20.90;100081.00;;;;2077922;28;20293;-49
2020/12/01 02:39:00;;;;;;;3.73;3.43;;;;;20.90;100077.00;;;;2079568;28;20217;-49
2020/12/01 02:40:01;;;;;;;3.57;3.37;;;;;21.00;100073.00;;;;2079323;28;20217;-49
2020/12/01 02:41:01;;;;;;;3.73;3.43;;;;;20.90;100074.00;;;;2079568;28;20228;-51
2020/12/01 02:42:04;;;;;;;3.60;3.30;;;;;20.90;100081.00;;;;2079425;28;20216;-50
2020/12/01 02:43:05;;;;;;;3.53;3.30;;;;;20.90;100068.00;;;;2079344;28;20220;-50
2020/12/01 02:44:06;;;;;;;3.80;3.50;;;;;20.90;100074.00;;;;2063312;28;20291;-51
2020/12/01 02:45:06;;;;;;;3.20;2.90;;;;;20.90;100066.00;;;;2061997;28;20255;-49
2020/12/01 02:46:07;;;;;;;3.57;3.27;;;;;20.90;100073.00;;;;2078874;28;20234;-50
2020/12/01 02:47:07;;;;;;;3.57;3.27;;;;;20.90;100066.00;;;;2079331;28;20692;-49
2020/12/01 02:48:07;;;;;;;3.53;3.23;;;;;20.90;100066.00;;;;2079318;28;20714;-51
2020/12/01 02:49:08;;;;;;;3.13;2.90;;;;;20.90;100064.00;;;;2079444;28;20221;-51
2020/12/01 02:50:08;;;;;;;3.80;3.50;;;;;20.90;100048.00;;;;2079329;28;20302;-51
2020/12/01 02:51:08;;;;;;;3.53;3.23;;;;;20.90;100062.00;;;;2079478;28;20208;-47
2020/12/01 02:52:09;;;;;;;3.40;3.10;;;;;20.90;100056.00;;;;2078272;28;20227;-50
2020/12/01 02:53:09;;;;;;;3.50;3.20;;;;;20.80;100055.00;;;;2078885;28;20284;-50
2020/12/01 02:54:09;;;;;;;3.30;3.00;;;;;20.90;100055.00;;;;2079138;28;20216;-49
2020/12/01 02:55:10;;;;;;;3.20;2.90;;;;;20.90;100063.00;;;;2078176;28;20717;-50
2020/12/01 02:56:10;;;;;;;3.87;3.57;;;;;20.80;100049.00;;;;2079222;28;20898;-50
2020/12/01 02:57:11;;;;;;;3.30;3.10;;;;;20.90;100059.00;;;;2079403;28;20694;-48
2020/12/01 02:58:11;;;;;;;2.83;2.53;;;;;20.80;100043.00;;;;2079221;28;20218;-50
2020/12/01 02:59:12;;;;;;;3.13;2.93;;;;;20.90;100052.00;;;;2070108;28;20306;-50
2020/12/01 03:00:13;;;;;;;3.50;3.20;;;;;20.90;100042.00;;;;2078623;28;20211;-48
2020/12/01 03:01:13;;;;;;;4.00;3.20;;;;;20.90;100046.00;;;;2079341;28;20212;-49
2020/12/01 03:02:13;;;;;;;3.70;3.40;;;;;20.80;100045.00;;;;2079438;28;20228;-48
2020/12/01 03:03:14;;;;;;;3.10;2.90;;;;;20.80;100055.00;;;;2079258;28;20217;-49
2020/12/01 03:04:14;;;;;;;3.70;3.40;;;;;20.80;100049.00;;;;2079129;28;20294;-50
2020/12/01 03:05:14;;;;;;;2.93;2.73;;;;;20.80;100054.00;;;;2078688;28;20220;-51
2020/12/01 03:06:16;;;;;;;3.27;3.07;;;;;20.80;100050.00;;;;2079235;28;20270;-49
2020/12/01 03:07:16;;;;;;;3.03;2.80;;;;;20.80;100055.00;;;;2078168;28;20212;-51
2020/12/01 03:08:16;;;;;;;2.90;2.70;;;;;20.80;100059.00;;;;2077772;28;20313;-51
2020/12/01 03:09:17;;;;;;;3.23;3.03;;;;;20.80;100058.00;;;;2079159;28;20224;-51
2020/12/01 03:10:18;;;;;;;3.60;3.30;;;;;20.80;100056.00;;;;2078764;28;20754;-52
2020/12/01 03:11:19;;;;;;;3.80;3.50;;;;;20.80;100046.00;;;;2079300;28;20224;-50
2020/12/01 03:12:19;;;;;;;2.80;2.60;;;;;20.80;100060.00;;;;2077767;28;20291;-49
2020/12/01 03:13:19;;;;;;;2.90;2.70;;;;;20.80;100058.00;;;;2077847;28;20224;-50
2020/12/01 03:14:22;;;;;;;3.17;2.97;;;;;20.80;100051.00;;;;2079221;28;20274;-49
2020/12/01 03:15:23;;;;;;;3.08;2.88;;;;;20.80;100057.00;;;;2078347;28;20216;-50
2020/12/01 03:16:23;;;;;;;3.20;2.90;;;;;20.80;100052.00;;;;2079113;28;20690;-52
2020/12/01 03:17:23;;;;;;;3.60;3.30;;;;;20.80;100056.00;;;;2079329;28;20881;-49
2020/12/01 03:18:24;;;;;;;3.23;2.93;;;;;20.80;100056.00;;;;2079111;28;20215;-51
2020/12/01 03:19:24;;;;;;;3.13;2.93;;;;;20.80;100051.00;;;;2079167;28;20209;-50
2020/12/01 03:20:24;;;;;;;3.40;3.10;;;;;20.80;100056.00;;;;2079111;28;20216;-50
2020/12/01 03:21:25;;;;;;;3.47;3.17;;;;;20.80;100055.00;;;;2079448;28;20217;-50
2020/12/01 03:22:25;;;;;;;3.00;2.80;;;;;20.80;100059.00;;;;2079124;28;20211;-51
2020/12/01 03:23:25;;;;;;;3.50;3.20;;;;;20.80;100052.00;;;;2079131;28;20230;-48
2020/12/01 03:24:26;;;;;;;3.03;2.73;;;;;20.80;100062.00;;;;2079114;28;20223;-49
2020/12/01 03:25:26;;;;;;;3.53;3.23;;;;;20.80;100058.00;;;;2078415;28;20965;-50
2020/12/01 03:26:27;;;;;;;3.00;2.80;;;;;20.80;100055.00;;;;2078988;28;20224;-51
2020/12/01 03:27:27;;;;;;;3.23;2.93;;;;;20.80;100054.00;;;;2078672;28;20213;-46
2020/12/01 03:28:27;;;;;;;2.87;2.67;;;;;20.70;100057.00;;;;2079207;28;20603;-50
2020/12/01 03:29:28;;;;;;;2.80;2.60;;;;;20.80;100058.00;;;;2078208;28;20267;-48
2020/12/01 03:30:28;;;;;;;3.10;2.90;;;;;20.80;100056.00;;;;2078655;28;20232;-50
2020/12/01 03:31:29;;;;;;;3.37;3.07;;;;;20.80;100058.00;;;;2079114;28;20321;-49
2020/12/01 03:32:29;;;;;;;3.37;3.07;;;;;20.70;100055.00;;;;2079085;28;20689;-51
2020/12/01 03:33:30;;;;;;;3.10;2.80;;;;;20.70;100056.00;;;;2079265;28;20226;-51
2020/12/01 03:34:30;;;;;;;2.93;2.67;;;;;20.70;100053.00;;;;2078664;28;20222;-49
2020/12/01 03:35:30;;;;;;;2.70;2.50;;;;;20.70;100054.00;;;;2078851;28;20377;-50
2020/12/01 03:36:31;;;;;;;3.10;2.90;;;;;20.70;100062.00;;;;2078924;28;20236;-51
2020/12/01 03:37:31;;;;;;;3.20;2.90;;;;;20.70;100067.00;;;;2079092;28;20324;-51
2020/12/01 03:38:31;;;;;;;3.10;2.80;;;;;20.70;100063.00;;;;2078913;28;20212;-51
2020/12/01 03:39:32;;;;;;;2.73;2.53;;;;;20.70;100065.00;;;;2076334;28;20224;-51
2020/12/01 03:40:32;;;;;;;2.83;2.30;;;;;20.70;100068.00;;;;2078964;28;20295;-49
2020/12/01 03:41:33;;;;;;;2.83;2.63;;;;;20.70;100065.00;;;;2079109;28;20319;-51
2020/12/01 03:42:34;;;;;;;3.10;2.80;;;;;20.70;100065.00;;;;2078922;28;20243;-49
2020/12/01 03:43:34;;;;;;;3.13;2.87;;;;;20.70;100070.00;;;;2078824;28;20717;-47
2020/12/01 03:44:34;;;;;;;3.20;2.90;;;;;20.70;100067.00;;;;2075354;28;20599;-50
2020/12/01 03:45:35;;;;;;;3.47;3.20;;;;;20.70;100073.00;;;;2077637;28;20223;-50
2020/12/01 03:46:35;;;;;;;3.37;3.07;;;;;20.70;100068.00;;;;2075116;28;20273;-51
2020/12/01 03:47:36;;;;;;;3.33;3.07;;;;;20.70;100069.00;;;;2078755;28;20236;-52
2020/12/01 03:48:36;;;;;;;3.00;2.70;;;;;20.70;100064.00;;;;2077968;28;20212;-51
2020/12/01 03:49:37;;;;;;;3.03;2.83;;;;;20.70;100074.00;;;;2076033;28;20215;-48
2020/12/01 03:50:37;;;;;;;2.90;2.70;;;;;20.70;100070.00;;;;2078372;28;20628;-51
2020/12/01 03:51:37;;;;;;;3.10;2.90;;;;;20.70;100074.00;;;;2078883;28;20308;-51
2020/12/01 03:52:38;;;;;;;3.20;2.83;;;;;20.70;100064.00;;;;2078963;28;20270;-51
2020/12/01 03:53:38;;;;;;;3.07;2.77;;;;;20.70;100070.00;;;;2078480;28;20227;-51
2020/12/01 03:54:38;;;;;;;2.90;2.60;;;;;20.70;100063.00;;;;2078138;28;20302;-51
2020/12/01 03:55:39;;;;;;;3.30;3.00;;;;;20.70;100065.00;;;;2078943;28;20312;-48
2020/12/01 03:56:39;;;;;;;2.80;2.60;;;;;20.70;100065.00;;;;2078627;28;20288;-51
2020/12/01 03:57:42;;;;;;;3.30;3.10;;;;;20.70;100067.00;;;;2078944;28;20216;-51
2020/12/01 03:58:42;;;;;;;3.50;3.20;;;;;20.70;100066.00;;;;2078693;28;20703;-48
2020/12/01 03:59:43;;;;;;;2.97;2.70;;;;;20.70;100060.00;;;;2078722;28;20318;-50
2020/12/01 04:00:43;;;;;;;2.67;2.47;;;;;20.70;100062.00;;;;2078803;28;20279;-50
2020/12/01 04:01:43;;;;;;;3.40;3.10;;;;;20.60;100062.00;;;;2078894;28;20243;-51
2020/12/01 04:02:44;;;;;;;2.70;2.50;;;;;20.60;100063.00;;;;2078565;28;20586;-51
2020/12/01 04:03:44;;;;;;;2.70;2.50;;;;;20.60;100058.00;;;;2078914;28;20227;-51
2020/12/01 04:04:45;;;;;;;3.13;2.93;;;;;20.60;100058.00;;;;2075662;28;20217;-49
2020/12/01 04:05:45;;;;;;;2.77;2.57;;;;;20.60;100053.00;;;;2077975;28;20568;-48
2020/12/01 04:06:45;;;;;;;3.43;3.13;;;;;20.60;100055.00;;;;2078098;28;20643;-52
2020/12/01 04:07:46;;;;;;;2.60;2.40;;;;;20.60;100058.00;;;;2078643;28;20272;-51
2020/12/01 04:08:46;;;;;;;2.93;2.73;;;;;20.60;100058.00;;;;2078947;28;20273;-51
2020/12/01 04:09:46;;;;;;;2.83;2.63;;;;;20.60;100054.00;;;;2078846;28;20227;-50
2020/12/01 04:10:47;;;;;;;2.50;2.30;;;;;20.60;100051.00;;;;2078710;28;20220;-50
2020/12/01 04:11:47;;;;;;;2.87;2.67;;;;;20.60;100056.00;;;;2079107;28;20350;-50
2020/12/01 04:12:47;;;;;;;3.27;2.97;;;;;20.60;100051.00;;;;2079034;28;20306;-51
2020/12/01 04:13:48;;;;;;;2.43;2.20;;;;;20.60;100052.00;;;;2078864;28;20226;-51
2020/12/01 04:14:48;;;;;;;2.67;2.47;;;;;20.60;100054.00;;;;2078209;28;20307;-51
2020/12/01 04:15:48;;;;;;;2.83;2.63;;;;;20.60;100050.00;;;;2078780;28;20273;-51
2020/12/01 04:16:49;;;;;;;2.90;2.70;;;;;20.60;100050.00;;;;2078870;28;20980;-51
2020/12/01 04:17:49;;;;;;;2.53;2.33;;;;;20.60;100041.00;;;;2078645;28;20286;-52
2020/12/01 04:18:49;;;;;;;2.77;2.50;;;;;20.60;100041.00;;;;2078453;28;20311;-48
2020/12/01 04:19:50;;;;;;;3.27;2.97;;;;;20.60;100045.00;;;;2078907;28;20975;-47
2020/12/01 04:20:51;;;;;;;2.97;2.60;;;;;20.60;100050.00;;;;2078395;28;20311;-51
2020/12/01 04:21:51;;;;;;;2.87;2.67;;;;;20.60;100048.00;;;;2078942;28;20764;-51
2020/12/01 04:22:51;;;;;;;2.87;2.67;;;;;20.60;100049.00;;;;2080818;28;20307;-50
2020/12/01 04:23:52;;;;;;;3.43;3.13;;;;;20.60;100046.00;;;;2081107;28;20220;-50
2020/12/01 04:24:52;;;;;;;3.03;2.70;;;;;20.60;100046.00;;;;2078067;28;20212;-49
2020/12/01 04:25:52;;;;;;;2.97;2.77;;;;;20.60;100055.00;;;;2078639;28;20736;-51
2020/12/01 04:26:53;;;;;;;3.17;2.97;;;;;20.60;100060.00;;;;2078797;28;20848;-51
2020/12/01 04:27:53;;;;;;;2.53;2.33;;;;;20.60;100050.00;;;;2078432;28;20227;-46
2020/12/01 04:28:54;;;;;;;2.53;2.37;;;;;20.60;100053.00;;;;2078743;28;20220;-49
2020/12/01 04:29:54;;;;;;;2.87;2.67;;;;;20.60;100055.00;;;;2078580;28;20287;-50
2020/12/01 04:30:54;;;;;;;2.20;2.00;;;;;20.60;100057.00;;;;2078565;28;20224;-51
2020/12/01 04:31:55;;;;;;;2.67;2.47;;;;;20.50;100057.00;;;;2078442;28;20217;-50
2020/12/01 04:32:55;;;;;;;2.80;2.60;;;;;20.60;100060.00;;;;2078896;28;20232;-47
2020/12/01 04:33:55;;;;;;;2.93;2.73;;;;;20.50;100057.00;;;;2078708;28;20300;-51
2020/12/01 04:34:56;;;;;;;2.73;2.53;;;;;20.60;100061.00;;;;2078137;28;20224;-48
2020/12/01 04:35:56;;;;;;;2.60;2.40;;;;;20.50;100068.00;;;;2078593;28;20227;-50
2020/12/01 04:36:57;;;;;;;2.70;2.50;;;;;20.50;100061.00;;;;2077837;28;20215;-56
2020/12/01 04:38:00;;;;;;;3.00;2.70;;;;;20.60;100062.00;;;;2078530;28;20690;-54
2020/12/01 04:39:01;;;;;;;2.63;2.42;;;;;20.60;100076.00;;;;2078707;28;20224;-50
2020/12/01 04:40:04;;;;;;;2.50;2.30;;;;;20.60;100060.00;;;;2078582;28;20220;-51
2020/12/01 04:41:04;;;;;;;2.33;2.13;;;;;20.50;100070.00;;;;2078049;28;20283;-48
2020/12/01 04:42:05;;;;;;;2.50;2.30;;;;;20.50;100074.00;;;;2077765;28;20809;-51
2020/12/01 04:43:31;;;;;;;2.70;2.50;;;;;20.50;100065.00;;;;2077501;28;20225;-51
2020/12/01 04:44:40;;;;;;;2.83;2.63;;;;;20.50;100069.00;;;;2072599;28;20462;-51
2020/12/01 04:45:41;;;;;;;2.55;2.35;;;;;20.50;100068.00;;;;2065900;28;20218;-51
2020/12/01 04:46:42;;;;;;;2.80;2.60;;;;;20.50;100069.00;;;;2062118;28;20788;-51
2020/12/01 04:48:14;;;;;;;2.60;2.40;;;;;20.50;100078.00;;;;2086113;28;20793;-51
2020/12/01 04:49:40;;;;;;;2.30;2.10;;;;;20.60;100073.00;;;;2061167;28;20296;-50
2020/12/01 04:50:50;;;;;;;2.17;1.98;;;;;20.50;100067.00;;;;2081793;28;20223;-49
2020/12/01 04:52:15;;;;;;;2.30;2.20;;;;;20.50;100082.00;;;;2081385;28;20215;-47
2020/12/01 04:53:45;;;;;;;2.70;2.50;;;;;20.50;100073.00;;;;2085113;28;20237;-51
2020/12/01 04:55:16;;;;;;;2.60;2.40;;;;;20.50;100068.00;;;;2075229;28;20270;-51
2020/12/01 04:56:32;;;;;;;2.50;2.30;;;;;20.50;100076.00;;;;2077291;28;20213;-49
2020/12/01 04:57:35;;;;;;;3.15;2.95;;;;;20.50;100064.00;;;;2072986;28;20229;-51
2020/12/01 04:58:53;;;;;;;3.03;2.72;;;;;20.50;100080.00;;;;2070917;28;20278;-51
2020/12/01 05:00:31;;;;;;;2.50;2.30;;;;;20.50;100073.00;;;;2078030;28;20219;-49
2020/12/01 05:01:50;;;;;;;2.70;2.50;;;;;20.50;100080.00;;;;2072144;28;20612;-50
2020/12/01 05:03:03;;;;;;;2.03;1.92;;;;;20.50;100079.00;;;;2069411;28;20224;-51
2020/12/01 05:04:21;;;;;;;2.05;1.95;;;;;20.50;100080.00;;;;2075254;28;20216;-51